createdAt,value
2017-06-20T00:00:25.287Z,18.60
2017-06-20T00:02:53.495Z,18.80
2017-06-20T00:05:20.947Z,18.80
2017-06-20T00:07:48.387Z,18.80
2017-06-20T00:10:16.594Z,18.80
2017-06-20T00:12:44.035Z,18.70
2017-06-20T00:15:11.490Z,18.90
2017-06-20T00:17:38.931Z,18.80
2017-06-20T00:20:07.135Z,18.70
2017-06-20T00:22:34.590Z,18.70
2017-06-20T00:25:02.037Z,18.80
2017-06-20T00:27:29.478Z,18.80
2017-06-20T00:29:56.915Z,18.90
2017-06-20T00:32:25.135Z,19.10
2017-06-20T00:34:52.585Z,19.00
2017-06-20T00:37:20.024Z,18.90
2017-06-20T00:39:47.462Z,18.90
2017-06-20T00:42:15.674Z,18.90
2017-06-20T00:44:43.121Z,18.80
2017-06-20T00:47:11.254Z,18.90
2017-06-20T00:49:39.465Z,19.00
2017-06-20T00:52:06.928Z,19.00
2017-06-20T00:54:34.363Z,18.80
2017-06-20T00:57:01.810Z,18.90
2017-06-20T00:59:30.025Z,19.00
2017-06-20T01:01:57.474Z,19.00
2017-06-20T01:04:24.935Z,19.10
2017-06-20T01:06:52.386Z,19.00
2017-06-20T01:09:19.843Z,18.80
2017-06-20T01:11:47.283Z,18.80
2017-06-20T01:14:14.722Z,19.00
2017-06-20T01:16:42.930Z,18.80
2017-06-20T01:19:10.380Z,18.80
2017-06-20T01:21:37.819Z,18.90
2017-06-20T01:24:05.259Z,18.90
2017-06-20T01:26:32.695Z,18.90
2017-06-20T01:29:00.147Z,19.00
2017-06-20T01:31:27.591Z,18.90
2017-06-20T01:33:55.037Z,18.80
2017-06-20T01:36:22.478Z,18.90
2017-06-20T01:38:49.935Z,18.80
2017-06-20T01:41:17.379Z,18.80
2017-06-20T01:43:44.851Z,18.50
2017-06-20T01:46:13.063Z,18.50
2017-06-20T01:48:40.512Z,18.50
2017-06-20T01:51:07.955Z,18.30
2017-06-20T01:53:35.398Z,18.10
2017-06-20T01:56:03.615Z,17.80
2017-06-20T01:58:31.059Z,17.80
2017-06-20T02:00:58.515Z,17.50
2017-06-20T02:03:25.958Z,17.40
2017-06-20T02:05:53.403Z,17.30
2017-06-20T02:08:20.847Z,17.50
2017-06-20T02:10:49.059Z,17.40
2017-06-20T02:13:16.543Z,17.40
2017-06-20T02:15:43.987Z,17.20
2017-06-20T02:18:11.432Z,17.40
2017-06-20T02:20:38.870Z,17.40
2017-06-20T02:23:06.315Z,17.60
2017-06-20T02:25:33.755Z,17.40
2017-06-20T02:28:01.202Z,17.30
2017-06-20T02:30:28.634Z,17.30
2017-06-20T02:32:56.078Z,17.40
2017-06-20T02:35:23.534Z,17.50
2017-06-20T02:37:50.995Z,17.50
2017-06-20T02:40:18.431Z,17.60
2017-06-20T02:42:45.887Z,17.60
2017-06-20T02:45:13.330Z,17.60
2017-06-20T02:47:40.778Z,17.50
2017-06-20T02:50:08.219Z,17.40
2017-06-20T02:52:36.427Z,17.40
2017-06-20T02:55:03.887Z,17.30
2017-06-20T02:57:31.350Z,17.50
2017-06-20T02:59:58.798Z,17.60
2017-06-20T03:02:26.234Z,17.60
2017-06-20T03:04:53.679Z,17.60
2017-06-20T03:07:21.895Z,17.50
2017-06-20T03:09:49.339Z,17.50
2017-06-20T03:12:16.783Z,17.50
2017-06-20T03:14:44.235Z,17.60
2017-06-20T03:17:11.672Z,17.60
2017-06-20T03:19:39.879Z,17.70
2017-06-20T03:22:07.331Z,17.70
2017-06-20T03:24:34.767Z,17.60
2017-06-20T03:27:02.207Z,17.60
2017-06-20T03:29:30.411Z,17.70
2017-06-20T03:31:57.854Z,17.70
2017-06-20T03:34:25.294Z,17.80
2017-06-20T03:36:53.511Z,17.80
2017-06-20T03:39:20.962Z,17.80
2017-06-20T03:41:48.435Z,17.90
2017-06-20T03:44:15.880Z,17.80
2017-06-20T03:46:43.331Z,17.80
2017-06-20T03:49:10.787Z,17.70
2017-06-20T03:51:38.219Z,17.60
2017-06-20T03:54:05.662Z,17.70
2017-06-20T03:56:33.876Z,17.70
2017-06-20T03:59:01.331Z,17.70
2017-06-20T04:01:28.769Z,17.80
2017-06-20T04:03:56.215Z,17.90
2017-06-20T04:06:23.647Z,17.80
2017-06-20T04:08:51.874Z,17.80
2017-06-20T04:11:19.314Z,17.80
2017-06-20T04:13:46.759Z,17.80
2017-06-20T04:16:14.199Z,17.80
2017-06-20T04:18:41.651Z,17.90
2017-06-20T04:21:14.723Z,17.90
2017-06-20T04:23:42.182Z,17.90
2017-06-20T04:26:09.628Z,17.90
2017-06-20T04:28:37.078Z,18.10
2017-06-20T04:31:04.528Z,18.50
2017-06-20T04:33:32.738Z,19.50
2017-06-20T04:36:00.190Z,19.40
2017-06-20T04:38:27.636Z,19.90
2017-06-20T04:40:55.083Z,20.50
2017-06-20T04:43:22.523Z,21.00
2017-06-20T04:45:50.735Z,22.20
2017-06-20T04:48:18.188Z,22.20
2017-06-20T04:50:45.627Z,22.60
2017-06-20T04:53:13.066Z,23.00
2017-06-20T04:55:40.513Z,23.30
2017-06-20T04:58:07.955Z,23.30
2017-06-20T05:00:35.399Z,23.40
2017-06-20T05:03:02.846Z,23.30
2017-06-20T05:05:30.295Z,23.40
2017-06-20T05:07:57.740Z,23.30
2017-06-20T05:10:25.192Z,23.30
2017-06-20T05:12:52.640Z,23.50
2017-06-20T05:15:20.079Z,24.00
2017-06-20T05:17:47.526Z,24.40
2017-06-20T05:20:14.976Z,24.90
2017-06-20T05:22:42.419Z,25.30
2017-06-20T05:25:09.862Z,25.40
2017-06-20T05:27:37.306Z,25.70
2017-06-20T05:30:04.755Z,26.10
2017-06-20T05:32:32.202Z,26.30
2017-06-20T05:34:59.652Z,26.50
2017-06-20T05:37:27.108Z,26.70
2017-06-20T05:39:54.551Z,26.60
2017-06-20T05:42:21.990Z,26.90
2017-06-20T05:44:49.707Z,27.30
2017-06-20T05:47:17.150Z,27.60
2017-06-20T05:49:44.595Z,27.90
2017-06-20T05:52:12.050Z,28.20
2017-06-20T05:54:39.503Z,28.50
2017-06-20T05:57:06.947Z,28.80
2017-06-20T05:59:34.393Z,29.20
2017-06-20T06:02:01.843Z,29.40
2017-06-20T06:04:30.051Z,30.20
2017-06-20T06:06:57.507Z,30.20
2017-06-20T06:09:24.954Z,30.40
2017-06-20T06:11:52.398Z,31.10
2017-06-20T06:14:19.846Z,31.30
2017-06-20T06:16:47.282Z,31.80
2017-06-20T06:19:15.503Z,32.20
2017-06-20T06:21:42.946Z,32.10
2017-06-20T06:24:10.394Z,31.90
2017-06-20T06:26:37.830Z,31.90
2017-06-20T06:29:06.047Z,32.40
2017-06-20T06:31:33.491Z,32.40
2017-06-20T06:34:00.935Z,33.00
2017-06-20T06:36:28.371Z,33.10
2017-06-20T06:38:55.822Z,33.50
2017-06-20T06:41:23.263Z,34.10
2017-06-20T06:43:50.702Z,34.40
2017-06-20T06:46:18.153Z,34.30
2017-06-20T06:48:45.594Z,34.40
2017-06-20T06:51:13.051Z,34.70
2017-06-20T06:53:40.507Z,35.10
2017-06-20T06:56:07.963Z,35.70
2017-06-20T06:58:35.408Z,35.70
2017-06-20T07:01:02.863Z,35.00
2017-06-20T07:03:30.307Z,34.60
2017-06-20T07:05:57.750Z,34.60
2017-06-20T07:08:25.194Z,34.70
2017-06-20T07:10:52.644Z,35.10
2017-06-20T07:13:20.084Z,35.30
2017-06-20T07:15:47.539Z,35.70
2017-06-20T07:18:14.991Z,36.10
2017-06-20T07:20:42.439Z,36.20
2017-06-20T07:23:09.879Z,36.40
2017-06-20T07:25:37.322Z,34.90
2017-06-20T07:28:04.772Z,35.70
2017-06-20T07:30:32.203Z,36.20
2017-06-20T07:33:00.419Z,36.00
2017-06-20T07:35:27.866Z,35.90
2017-06-20T07:37:55.311Z,35.40
2017-06-20T07:40:22.747Z,36.00
2017-06-20T07:42:50.191Z,36.90
2017-06-20T07:45:17.638Z,36.50
2017-06-20T07:47:45.090Z,37.10
2017-06-20T07:50:12.547Z,37.30
2017-06-20T07:52:39.994Z,37.80
2017-06-20T07:55:07.447Z,34.30
2017-06-20T07:57:34.896Z,35.70
2017-06-20T08:00:02.340Z,37.00
2017-06-20T08:02:29.788Z,37.70
2017-06-20T08:04:57.235Z,38.30
2017-06-20T08:07:25.443Z,38.50
2017-06-20T08:09:52.899Z,38.40
2017-06-20T08:12:20.343Z,34.30
2017-06-20T08:14:47.790Z,33.70
2017-06-20T08:17:15.241Z,31.40
2017-06-20T08:19:42.675Z,30.50
2017-06-20T08:22:14.315Z,30.70
2017-06-20T08:24:41.759Z,30.60
2017-06-20T08:27:09.204Z,31.20
2017-06-20T08:29:36.647Z,32.70
2017-06-20T08:32:04.102Z,34.00
2017-06-20T08:34:31.547Z,34.80
2017-06-20T08:37:04.589Z,35.00
2017-06-20T08:39:32.036Z,33.70
2017-06-20T08:41:59.496Z,34.20
2017-06-20T08:44:26.935Z,35.40
2017-06-20T08:46:54.380Z,35.80
2017-06-20T08:49:21.838Z,34.80
2017-06-20T08:51:49.284Z,34.70
2017-06-20T08:54:16.739Z,36.10
2017-06-20T08:56:44.184Z,37.30
2017-06-20T08:59:11.639Z,36.20
2017-06-20T09:01:39.083Z,36.80
2017-06-20T09:04:06.527Z,36.40
2017-06-20T09:06:34.740Z,37.20
2017-06-20T09:09:02.198Z,37.20
2017-06-20T09:11:29.643Z,37.30
2017-06-20T09:13:57.091Z,37.60
2017-06-20T09:16:24.531Z,37.90
2017-06-20T09:18:52.014Z,38.10
2017-06-20T09:21:19.454Z,38.70
2017-06-20T09:23:46.911Z,37.00
2017-06-20T09:26:14.354Z,34.90
2017-06-20T09:28:41.799Z,35.90
2017-06-20T09:31:09.255Z,37.10
2017-06-20T09:33:36.699Z,35.70
2017-06-20T09:36:04.143Z,36.70
2017-06-20T09:38:31.587Z,38.00
2017-06-20T09:40:59.043Z,36.10
2017-06-20T09:43:26.479Z,35.40
2017-06-20T09:45:53.938Z,35.50
2017-06-20T09:48:21.378Z,36.10
2017-06-20T09:50:48.819Z,36.70
2017-06-20T09:53:16.263Z,37.40
2017-06-20T09:55:43.702Z,36.20
2017-06-20T09:58:11.924Z,37.10
2017-06-20T10:00:39.363Z,37.10
2017-06-20T10:03:06.811Z,38.20
2017-06-20T10:05:34.251Z,36.80
2017-06-20T10:08:02.463Z,38.10
2017-06-20T10:10:29.916Z,38.10
2017-06-20T10:12:57.371Z,37.00
2017-06-20T10:15:24.815Z,37.10
2017-06-20T10:17:52.252Z,37.30
2017-06-20T10:20:20.459Z,39.20
2017-06-20T10:22:47.903Z,39.10
2017-06-20T10:25:15.359Z,39.30
2017-06-20T10:27:42.795Z,39.20
2017-06-20T10:30:10.242Z,37.60
2017-06-20T10:32:38.455Z,38.40
2017-06-20T10:35:05.912Z,38.40
2017-06-20T10:37:33.352Z,38.80
2017-06-20T10:40:00.794Z,38.70
2017-06-20T10:42:28.234Z,38.70
2017-06-20T10:44:56.455Z,37.80
2017-06-20T10:47:23.900Z,37.70
2017-06-20T10:49:51.339Z,36.70
2017-06-20T10:52:18.787Z,37.30
2017-06-20T10:54:46.995Z,38.00
2017-06-20T10:57:14.438Z,38.00
2017-06-20T10:59:41.881Z,38.30
2017-06-20T11:02:09.364Z,38.40
2017-06-20T11:04:36.795Z,38.40
2017-06-20T11:07:04.239Z,38.40
2017-06-20T11:09:32.455Z,37.20
2017-06-20T11:11:59.919Z,37.20
2017-06-20T11:14:27.373Z,37.40
2017-06-20T11:16:54.807Z,38.30
2017-06-20T11:19:22.256Z,38.50
2017-06-20T11:21:49.696Z,38.30
2017-06-20T11:24:17.911Z,37.70
2017-06-20T11:26:45.353Z,37.70
2017-06-20T11:29:12.794Z,34.10
2017-06-20T11:31:40.231Z,34.00
2017-06-20T11:34:08.549Z,35.70
2017-06-20T11:36:35.982Z,35.60
2017-06-20T11:39:03.455Z,36.10
2017-06-20T11:41:30.887Z,36.60
2017-06-20T11:43:58.328Z,36.30
2017-06-20T11:46:26.547Z,36.50
2017-06-20T11:48:53.991Z,36.40
2017-06-20T11:51:21.443Z,34.80
2017-06-20T11:53:48.881Z,34.70
2017-06-20T11:56:17.099Z,36.90
2017-06-20T11:58:44.563Z,36.80
2017-06-20T12:01:12.791Z,38.50
2017-06-20T12:03:40.257Z,38.50
2017-06-20T12:06:07.703Z,38.90
2017-06-20T12:08:35.166Z,38.80
2017-06-20T12:11:02.614Z,37.70
2017-06-20T12:13:30.068Z,36.80
2017-06-20T12:15:57.515Z,37.00
2017-06-20T12:18:24.967Z,35.40
2017-06-20T12:20:52.408Z,36.50
2017-06-20T12:23:19.852Z,37.50
2017-06-20T12:25:48.067Z,37.50
2017-06-20T12:28:15.516Z,37.50
2017-06-20T12:30:42.967Z,37.40
2017-06-20T12:33:10.443Z,37.00
2017-06-20T12:35:37.883Z,37.00
2017-06-20T12:38:05.327Z,37.60
2017-06-20T12:40:32.775Z,37.80
2017-06-20T12:43:00.222Z,37.80
2017-06-20T12:45:27.675Z,37.80
2017-06-20T12:47:55.132Z,37.90
2017-06-20T12:50:22.590Z,37.50
2017-06-20T12:52:50.814Z,37.00
2017-06-20T12:55:19.034Z,37.60
2017-06-20T12:57:46.479Z,37.60
2017-06-20T13:00:13.919Z,37.10
2017-06-20T13:02:41.372Z,36.40
2017-06-20T13:05:08.828Z,36.80
2017-06-20T13:07:36.275Z,37.20
2017-06-20T13:10:03.729Z,37.00
2017-06-20T13:12:31.190Z,37.10
2017-06-20T13:14:58.679Z,35.60
2017-06-20T13:17:26.121Z,35.90
2017-06-20T13:19:53.575Z,36.60
2017-06-20T13:22:21.035Z,36.30
2017-06-20T13:24:48.471Z,36.60
2017-06-20T13:27:15.943Z,36.70
2017-06-20T13:29:43.383Z,36.70
2017-06-20T13:32:10.821Z,36.80
2017-06-20T13:34:38.264Z,36.90
2017-06-20T13:37:05.699Z,36.90
2017-06-20T13:39:33.163Z,36.90
2017-06-20T13:42:00.604Z,35.20
2017-06-20T13:44:28.059Z,35.60
2017-06-20T13:46:55.516Z,35.50
2017-06-20T13:49:22.970Z,35.70
2017-06-20T13:51:50.432Z,35.50
2017-06-20T13:54:17.879Z,35.40
2017-06-20T13:56:45.327Z,35.50
2017-06-20T13:59:12.776Z,34.90
2017-06-20T14:01:40.239Z,35.10
2017-06-20T14:04:07.696Z,35.00
2017-06-20T14:06:35.161Z,35.20
2017-06-20T14:09:02.599Z,35.10
2017-06-20T14:11:30.051Z,35.00
2017-06-20T14:13:57.501Z,34.80
2017-06-20T14:16:24.947Z,35.20
2017-06-20T14:18:52.395Z,35.30
2017-06-20T14:21:19.840Z,35.30
2017-06-20T14:23:47.295Z,35.40
2017-06-20T14:26:14.747Z,35.30
2017-06-20T14:28:42.964Z,35.20
2017-06-20T14:31:10.419Z,35.10
2017-06-20T14:33:37.873Z,35.20
2017-06-20T14:36:05.303Z,34.70
2017-06-20T14:38:32.743Z,34.60
2017-06-20T14:41:00.192Z,34.80
2017-06-20T14:43:28.420Z,35.30
2017-06-20T14:45:55.871Z,35.20
2017-06-20T14:48:23.330Z,34.80
2017-06-20T14:50:50.770Z,34.80
2017-06-20T14:53:18.987Z,34.20
2017-06-20T14:55:46.431Z,34.20
2017-06-20T14:58:13.879Z,34.40
2017-06-20T15:00:41.318Z,34.10
2017-06-20T15:03:08.763Z,33.70
2017-06-20T15:05:36.963Z,34.20
2017-06-20T15:08:04.431Z,34.20
2017-06-20T15:10:31.867Z,34.40
2017-06-20T15:13:00.071Z,34.80
2017-06-20T15:15:27.527Z,34.70
2017-06-20T15:17:54.970Z,34.80
2017-06-20T15:20:22.428Z,34.50
2017-06-20T15:22:49.869Z,34.60
2017-06-20T15:25:17.351Z,34.60
2017-06-20T15:27:44.796Z,34.60
2017-06-20T15:30:12.247Z,34.30
2017-06-20T15:32:39.696Z,34.30
2017-06-20T15:35:07.145Z,34.00
2017-06-20T15:37:34.585Z,33.80
2017-06-20T15:40:02.799Z,33.50
2017-06-20T15:42:30.238Z,33.40
2017-06-20T15:44:57.693Z,33.20
2017-06-20T15:47:25.159Z,33.10
2017-06-20T15:49:52.662Z,32.80
2017-06-20T15:52:20.107Z,33.00
2017-06-20T15:54:47.571Z,33.40
2017-06-20T15:57:15.007Z,33.60
2017-06-20T15:59:42.467Z,33.70
2017-06-20T16:02:09.955Z,33.30
2017-06-20T16:04:38.182Z,33.10
2017-06-20T16:07:05.634Z,33.10
2017-06-20T16:09:33.089Z,33.20
2017-06-20T16:12:00.563Z,33.20
2017-06-20T16:14:28.006Z,32.90
2017-06-20T16:16:55.475Z,32.90
2017-06-20T16:19:22.931Z,32.70
2017-06-20T16:21:50.372Z,32.60
2017-06-20T16:24:17.871Z,32.30
2017-06-20T16:26:45.324Z,32.20
2017-06-20T16:29:12.792Z,32.30
2017-06-20T16:31:40.239Z,32.40
2017-06-20T16:34:07.739Z,32.40
2017-06-20T16:36:35.190Z,32.40
2017-06-20T16:39:02.639Z,32.10
2017-06-20T16:41:30.083Z,32.20
2017-06-20T16:43:57.550Z,31.90
2017-06-20T16:46:24.996Z,31.80
2017-06-20T16:48:52.435Z,32.00
2017-06-20T16:51:19.888Z,32.10
2017-06-20T16:53:48.098Z,31.60
2017-06-20T16:56:15.555Z,31.60
2017-06-20T16:58:43.008Z,31.60
2017-06-20T17:01:10.467Z,31.70
2017-06-20T17:03:37.924Z,31.90
2017-06-20T17:06:05.380Z,31.90
2017-06-20T17:08:32.829Z,31.80
2017-06-20T17:11:00.284Z,31.90
2017-06-20T17:13:27.735Z,31.80
2017-06-20T17:15:55.175Z,32.00
2017-06-20T17:18:22.627Z,31.90
2017-06-20T17:20:50.835Z,31.80
2017-06-20T17:23:18.291Z,31.80
2017-06-20T17:25:45.740Z,31.90
2017-06-20T17:28:13.179Z,32.00
2017-06-20T17:30:40.636Z,31.90
2017-06-20T17:33:08.087Z,31.60
2017-06-20T17:35:35.528Z,31.70
2017-06-20T17:38:03.744Z,31.40
2017-06-20T17:40:31.187Z,31.40
2017-06-20T17:42:58.623Z,31.30
2017-06-20T17:45:26.077Z,31.30
2017-06-20T17:47:53.518Z,31.40
2017-06-20T17:50:20.971Z,31.30
2017-06-20T17:52:49.190Z,31.20
2017-06-20T17:55:17.455Z,31.20
2017-06-20T17:57:44.907Z,31.40
2017-06-20T18:00:12.365Z,31.30
2017-06-20T18:02:39.819Z,31.20
2017-06-20T18:05:07.289Z,31.30
2017-06-20T18:07:34.735Z,30.90
2017-06-20T18:10:02.175Z,31.00
2017-06-20T18:12:29.639Z,31.00
2017-06-20T18:14:57.076Z,31.10
2017-06-20T18:17:24.531Z,31.10
2017-06-20T18:19:51.975Z,31.20
2017-06-20T18:22:19.444Z,31.10
2017-06-20T18:24:46.887Z,30.90
2017-06-20T18:27:14.340Z,30.80
2017-06-20T18:29:41.796Z,30.80
2017-06-20T18:32:09.252Z,30.80
2017-06-20T18:34:36.715Z,30.70
2017-06-20T18:37:04.187Z,30.70
2017-06-20T18:39:31.650Z,30.80
2017-06-20T18:41:59.105Z,30.70
2017-06-20T18:44:26.570Z,30.70
2017-06-20T18:46:54.034Z,30.70
2017-06-20T18:49:21.494Z,30.40
2017-06-20T18:51:49.024Z,30.20
2017-06-20T18:54:16.486Z,29.90
2017-06-20T18:56:43.947Z,29.40
2017-06-20T18:59:11.403Z,29.20
2017-06-20T19:01:38.873Z,28.60
2017-06-20T19:04:06.351Z,28.00
2017-06-20T19:06:33.818Z,27.50
2017-06-20T19:09:01.283Z,27.40
2017-06-20T19:11:28.739Z,27.10
2017-06-20T19:13:56.197Z,26.90
2017-06-20T19:16:23.652Z,26.90
2017-06-20T19:18:51.099Z,27.10
2017-06-20T19:21:18.552Z,27.20
2017-06-20T19:23:46.006Z,27.10
2017-06-20T19:26:13.467Z,27.00
2017-06-20T19:28:40.922Z,27.10
2017-06-20T19:31:08.382Z,27.10
2017-06-20T19:33:35.898Z,27.00
2017-06-20T19:36:03.414Z,26.90
2017-06-20T19:38:30.876Z,26.20
2017-06-20T19:40:58.335Z,25.90
2017-06-20T19:43:26.192Z,25.80
2017-06-20T19:45:53.626Z,25.70
2017-06-20T19:48:21.095Z,25.60
2017-06-20T19:50:48.747Z,25.50
2017-06-20T19:53:16.215Z,25.50
2017-06-20T19:55:43.668Z,25.40
2017-06-20T19:58:11.133Z,25.30
2017-06-20T20:00:38.586Z,25.40
2017-06-20T20:03:06.038Z,25.30
2017-06-20T20:05:33.487Z,25.00
2017-06-20T20:08:00.967Z,25.00
2017-06-20T20:10:28.423Z,25.00
2017-06-20T20:12:55.870Z,24.90
2017-06-20T20:15:23.354Z,25.00
2017-06-20T20:17:50.807Z,25.10
2017-06-20T20:20:18.274Z,25.20
2017-06-20T20:22:45.749Z,25.20
2017-06-20T20:25:13.207Z,25.10
2017-06-20T20:27:40.659Z,24.70
2017-06-20T20:30:08.136Z,24.70
2017-06-20T20:32:35.612Z,24.60
2017-06-20T20:35:03.090Z,24.60
2017-06-20T20:37:30.547Z,24.60
2017-06-20T20:39:58.008Z,24.50
2017-06-20T20:42:26.241Z,24.60
2017-06-20T20:44:53.691Z,24.60
2017-06-20T20:47:21.148Z,24.70
2017-06-20T20:49:49.037Z,24.70
2017-06-20T20:52:16.486Z,24.80
2017-06-20T20:54:43.949Z,24.80
2017-06-20T20:57:12.092Z,24.30
2017-06-20T20:59:39.565Z,24.20
2017-06-20T21:02:07.031Z,24.00
2017-06-20T21:04:34.490Z,24.00
2017-06-20T21:07:01.944Z,24.10
2017-06-20T21:09:29.495Z,24.00
2017-06-20T21:11:56.954Z,23.90
2017-06-20T21:14:24.411Z,23.90
2017-06-20T21:16:51.879Z,24.00
2017-06-20T21:19:19.343Z,24.20
2017-06-20T21:21:46.928Z,24.20
2017-06-20T21:24:14.390Z,24.10
2017-06-20T21:26:41.847Z,24.10
2017-06-20T21:29:09.312Z,24.00
2017-06-20T21:31:36.758Z,24.00
2017-06-20T21:34:04.534Z,24.10
2017-06-20T21:36:32.240Z,23.90
2017-06-20T21:38:59.771Z,23.60
2017-06-20T21:41:27.223Z,23.40
2017-06-20T21:43:54.687Z,23.10
2017-06-20T21:46:22.147Z,22.80
2017-06-20T21:48:49.594Z,22.80
2017-06-20T21:51:17.047Z,23.00
2017-06-20T21:53:44.507Z,23.10
2017-06-20T21:56:11.963Z,23.10
2017-06-20T21:58:39.420Z,23.20
2017-06-20T22:01:06.874Z,22.90
2017-06-20T22:03:34.335Z,22.90
2017-06-20T22:06:01.787Z,22.80
2017-06-20T22:08:29.243Z,22.90
2017-06-20T22:10:56.700Z,22.90
2017-06-20T22:13:24.154Z,22.90
2017-06-20T22:15:51.611Z,23.00
2017-06-20T22:18:19.067Z,23.10
2017-06-20T22:20:46.527Z,23.10
2017-06-20T22:23:13.979Z,22.90
2017-06-20T22:25:41.438Z,22.60
2017-06-20T22:28:08.911Z,22.50
2017-06-20T22:30:37.123Z,22.40
2017-06-20T22:33:04.580Z,22.50
2017-06-20T22:35:32.035Z,22.60
2017-06-20T22:37:59.490Z,22.60
2017-06-20T22:40:26.948Z,22.60
2017-06-20T22:42:54.403Z,22.80
2017-06-20T22:45:21.863Z,22.80
2017-06-20T22:47:49.318Z,22.90
2017-06-20T22:50:16.771Z,22.90
2017-06-20T22:52:44.232Z,22.60
2017-06-20T22:55:11.687Z,22.50
2017-06-20T22:57:39.144Z,22.30
2017-06-20T23:00:06.599Z,22.20
2017-06-20T23:02:34.054Z,22.30
2017-06-20T23:05:01.506Z,21.90
2017-06-20T23:07:28.968Z,21.60
2017-06-20T23:09:56.424Z,21.80
2017-06-20T23:12:23.878Z,21.90
2017-06-20T23:14:51.334Z,21.90
2017-06-20T23:17:18.791Z,21.80
2017-06-20T23:19:46.255Z,21.70
2017-06-20T23:22:13.715Z,21.80
2017-06-20T23:24:41.163Z,21.70
2017-06-20T23:27:08.618Z,21.70
2017-06-20T23:29:36.074Z,21.70
2017-06-20T23:32:03.531Z,21.30
2017-06-20T23:34:30.987Z,21.00
2017-06-20T23:36:58.443Z,21.00
2017-06-20T23:39:25.899Z,21.00
2017-06-20T23:41:53.355Z,21.10
2017-06-20T23:44:21.064Z,21.20
2017-06-20T23:46:48.507Z,21.10
2017-06-20T23:49:15.966Z,21.20
2017-06-20T23:51:43.419Z,21.20
2017-06-20T23:54:10.879Z,21.10
2017-06-20T23:56:38.322Z,21.20
2017-06-20T23:59:05.779Z,21.20
